»·PEaware :: N256Z KCNY-KCOS

N256Z :: KCNY-KCOS

FLIGHT INFORMATION

Flight Status: Arrived
Operator: Privately registered:
United States
More flights under this callsign
Pilot: Gregory A. (9731)
Aircraft: PIPER PA-46-500TP MALIBU MERIDIAN
(P46T)
More flights by this aircraft type
Origin: KCNY Canyonlands
United States
Destination: KCOS City Of Colorado Springs Mun
United States
More flights between these airports :: More routes between these airports
Route: +HBU DBRY3
File this flight plan on PilotEdge
Remarks:
Altitude:
(Current/Filed)
290ft
Speed:
(Current/Filed)
274kts
Departed: 05-Aug-18 11:51 AM
Arrived: 05-Aug-18 01:09 PM
Distance/Time
Traveled:
237nm/1:17
Distance/Time
To Go:
Arrived

Flight Plot

Page will automatically refresh every two minutes.

Flight plan parsing failed; only flown route is shown


Map Options




Map Legend


Flown Route
Filed Route
Departure Airport
Arrival Airport
Navaid (VOR, NDB)
Fix

Horizontal Profiles

Position Reports

Time Latitude Longitude Heading Altitude Ground
Speed
05-Aug-18 11:48 38.747872 -109.762391 39 4559ft 0kts
05-Aug-18 11:49 38.747872 -109.762391 39 4559ft 0kts
05-Aug-18 11:50 38.747872 -109.762391 39 4559ft 0kts
05-Aug-18 11:51 38.747872 -109.762391 39 4559ft 0kts
05-Aug-18 11:52 38.751020 -109.759016 39 4559ft 74kts
05-Aug-18 11:53 38.762654 -109.731633 112 5555ft 141kts
05-Aug-18 11:54 38.747350 -109.667076 99 7720ft 176kts
05-Aug-18 11:55 38.739917 -109.602197 98 10066ft 187kts
05-Aug-18 11:56 38.734163 -109.546668 94 12117ft 191kts
05-Aug-18 11:57 38.726073 -109.465960 94 15040ft 207kts
05-Aug-18 11:58 38.719605 -109.402575 95 17134ft 222kts
05-Aug-18 11:59 38.711396 -109.323269 95 19620ft 225kts
05-Aug-18 12:00 38.702046 -109.232859 95 22491ft 212kts
05-Aug-18 12:01 38.695524 -109.169112 95 24561ft 223kts
05-Aug-18 12:02 38.685957 -109.077568 94 27327ft 226kts
05-Aug-18 12:03 38.678211 -109.003926 96 28734ft 271kts
05-Aug-18 12:04 38.666338 -108.895798 96 28933ft 333kts
05-Aug-18 12:05 38.652897 -108.775331 96 28925ft 347kts
05-Aug-18 12:06 38.639132 -108.651869 96 28925ft 351kts
05-Aug-18 12:07 38.625326 -108.528217 96 28922ft 352kts
05-Aug-18 12:08 38.611426 -108.404387 97 28923ft 352kts
05-Aug-18 12:09 38.597350 -108.279970 97 28924ft 353kts
05-Aug-18 12:10 38.583196 -108.155958 97 28924ft 353kts
05-Aug-18 12:11 38.568922 -108.031995 97 28927ft 353kts
05-Aug-18 12:12 38.554456 -107.907454 97 28930ft 354kts
05-Aug-18 12:13 38.539834 -107.782751 97 28750ft 358kts
05-Aug-18 12:14 38.525005 -107.657643 97 28154ft 355kts
05-Aug-18 12:15 38.510357 -107.534799 97 27607ft 343kts
05-Aug-18 12:16 38.496069 -107.414999 97 26928ft 345kts
05-Aug-18 12:17 38.481368 -107.292888 97 25936ft 349kts
05-Aug-18 12:18 38.466878 -107.172484 97 24931ft 337kts
05-Aug-18 12:19 38.453705 -107.055943 95 24022ft 323kts
05-Aug-18 12:20 38.444455 -106.946596 93 23918ft 298kts
05-Aug-18 12:21 38.436832 -106.840926 93 23930ft 308kts
05-Aug-18 12:22 38.428953 -106.730264 93 23949ft 318kts
05-Aug-18 12:23 38.420815 -106.617267 93 23986ft 319kts
05-Aug-18 12:24 38.412744 -106.505204 93 24028ft 316kts
05-Aug-18 12:25 38.404706 -106.393925 93 24057ft 314kts
05-Aug-18 12:26 38.396611 -106.283059 93 24058ft 313kts
05-Aug-18 12:27 38.388453 -106.172759 93 24015ft 313kts
05-Aug-18 12:28 38.380174 -106.062396 93 23969ft 312kts
05-Aug-18 12:29 38.371809 -105.952153 94 23922ft 310kts
05-Aug-18 12:30 38.363471 -105.843281 94 23929ft 308kts
05-Aug-18 12:31 38.355081 -105.734831 94 23953ft 308kts
05-Aug-18 12:32 38.346562 -105.626257 94 23858ft 312kts
05-Aug-18 12:33 38.337642 -105.512413 89 22721ft 324kts
05-Aug-18 12:34 38.328670 -105.399746 96 21578ft 315kts
05-Aug-18 12:35 38.316717 -105.292025 97 20574ft 301kts
05-Aug-18 12:36 38.304741 -105.187122 97 19571ft 297kts
05-Aug-18 12:37 38.292802 -105.083169 97 18573ft 297kts
05-Aug-18 12:38 38.280668 -104.979423 95 17576ft 296kts
05-Aug-18 12:39 38.314792 -104.902250 23 17057ft 233kts
05-Aug-18 12:40 38.360176 -104.849228 31 17052ft 218kts
05-Aug-18 12:41 38.398497 -104.789175 33 17056ft 216kts
05-Aug-18 12:42 38.437723 -104.731164 31 17052ft 215kts
05-Aug-18 12:43 38.474144 -104.678418 31 17055ft 226kts
05-Aug-18 12:44 38.518749 -104.619820 28 17050ft 235kts
05-Aug-18 12:45 38.566908 -104.561700 27 17043ft 239kts
05-Aug-18 12:46 38.615836 -104.503971 27 17037ft 240kts
05-Aug-18 12:47 38.666722 -104.451596 17 17027ft 230kts
05-Aug-18 12:48 38.720536 -104.408710 10 17014ft 222kts
05-Aug-18 12:49 38.775894 -104.378122 2 17012ft 213kts
05-Aug-18 12:50 38.831375 -104.359767 348 17012ft 196kts
05-Aug-18 12:51 38.884674 -104.357196 332 17011ft 179kts
05-Aug-18 12:52 38.919317 -104.390548 290 17010ft 151kts
05-Aug-18 12:53 38.931832 -104.443061 294 16509ft 162kts
05-Aug-18 12:54 38.972517 -104.468838 349 15228ft 194kts
05-Aug-18 12:55 39.025436 -104.450807 1 13960ft 184kts
05-Aug-18 12:56 39.070672 -104.438366 336 12815ft 145kts
05-Aug-18 12:57 39.095146 -104.468942 281 11826ft 128kts
05-Aug-18 12:58 39.095938 -104.517070 278 10834ft 141kts
05-Aug-18 12:59 39.107502 -104.566351 300 10028ft 142kts
05-Aug-18 13:00 39.124989 -104.607782 293 9985ft 126kts
05-Aug-18 13:01 39.125083 -104.652277 257 9987ft 130kts
05-Aug-18 13:02 39.100012 -104.683616 189 9997ft 146kts
05-Aug-18 13:03 39.056989 -104.687267 183 9480ft 162kts
05-Aug-18 13:04 39.011437 -104.687685 177 8867ft 161kts
05-Aug-18 13:05 38.970111 -104.684684 178 8790ft 140kts
05-Aug-18 13:06 38.930047 -104.685814 178 8575ft 144kts
05-Aug-18 13:07 38.889845 -104.685385 179 7667ft 143kts
05-Aug-18 13:08 38.853284 -104.685800 178 6951ft 127kts
05-Aug-18 13:09 38.819120 -104.685900 178 6246ft 109kts
05-Aug-18 13:10 38.801483 -104.686083 289 6130ft 3kts

Navigation Log

Ident Type
Flight plan parsing failed, navigation log unavailable